Aérodrome :
LOGIN :

S'inscrire | Disclaimer

   EN    FR    IT 

 










Légende :    VFR   VFR Marginal   IFR   IFR Intensif   IFR Très Intensif
Visi : 
Plafond : 
>= 8 km
>= 3000ft
5 à 8 km
1000 à 3000 ft
1500m à 5 km
500 à 1000 ft
800 à 1500m
200 à 500 ft
< 800m
< 200 ft
Symboles :   Orages  Brouillard  Fortes neiges  Fortes précipitations  Vent > 20 kt
SIGMETs :   Divers  Orages  Givrage  Turbulence  Onde Orograph.  Cendres Volcan.







- Altitude de l'aérodrome : 36 ft
- Code IATA : LTQ
- Voir les cartes d'approche


LFAT - Le Touquet

DERNIER METAR :
  • 261730Z AUTO 36011KT 9999 SCT036 BKN045 BKN052 08/02 Q1016 TEMPO VRB20G30KT 2000 TSRAGS BKN030CB

METARs EXPIRÉS :
  • 261700Z AUTO 36011KT 340V050 9999 FEW029 08/02 Q1016 TEMPO VRB20G30KT 2000 TSRAGS BKN030CB
  • 261630Z AUTO 01012KT 9999 FEW042/// ///TCU 08/03 Q1016 TEMPO VRB20G30KT 2000 TSRAGS BKN030CB
  • 261600Z AUTO 36012KT 330V030 9999 FEW039 SCT058 08/02 Q1016 TEMPO VRB20G30KT 2000 TSRAGS BKN030CB
  • 261530Z AUTO 01013KT CAVOK 10/02 Q1016 TEMPO VRB20G30KT 2000 TSRAGS BKN030CB
  • 261500Z AUTO 35011KT 9999 FEW022/// SCT050/// ///TCU 09/02 Q1016 TEMPO VRB20G30KT 2000 TSRAGS BKN030CB
  • 261430Z AUTO 02016KT 9999 -RA FEW016/// BKN030/// BKN037/// ///CB 05/02 Q1017 TEMPO VRB20G30KT 2000 TSRAGS

TAF TAF LFAT
Valide du 26 à 15h jusqu'au 27 à 00h UTC


261400Z 2615/2624 34010KT 9999 BKN030
TEMPO 2615/2624 4000 SHRA BKN030CB
PROB30
TEMPO 2615/2624 VRB20G30KT 2000 TSRAGS BKN030CB
ATIS : +33 3 21 06 62 84
Pas de NOTAMs connus pour ce terrain.



MET'MAP, la Météo Aéronautique d'un coup d'oeil ! - Copyright ORBIFLY Décembre 2007 - Disclaimer

ORBIFLY MET'MAP TEAM :

Programmation & Développement : Alexandra Zaïnal
Conception & Développement : Baudouin d'Aumeries
Co-Programmation & Développement : Marc-Olivier Méhu
Soutien technique & logistique : Manuel Goepfert

Contact : metmap@orbifly.com




SOURCES & CREDITS :

   NOAA